createdAt,value
2018-10-04T00:00:09.759Z,7.70
2018-10-04T00:02:38.840Z,7.60
2018-10-04T00:05:08.079Z,7.70
2018-10-04T00:07:37.129Z,7.60
2018-10-04T00:10:06.221Z,7.60
2018-10-04T00:12:35.209Z,7.60
2018-10-04T00:15:04.295Z,7.60
2018-10-04T00:17:33.332Z,7.50
2018-10-04T00:20:02.461Z,7.50
2018-10-04T00:22:38.086Z,7.50
2018-10-04T00:25:07.192Z,7.30
2018-10-04T00:27:36.313Z,7.30
2018-10-04T00:30:05.330Z,7.30
2018-10-04T00:32:34.382Z,7.20
2018-10-04T00:35:03.419Z,7.20
2018-10-04T00:37:32.527Z,7.20
2018-10-04T00:40:01.674Z,7.20
2018-10-04T00:42:30.716Z,7.20
2018-10-04T00:44:59.718Z,7.20
2018-10-04T00:47:28.744Z,7.20
2018-10-04T00:49:57.768Z,7.20
2018-10-04T00:52:26.764Z,7.10
2018-10-04T00:54:55.809Z,7.10
2018-10-04T00:57:24.880Z,7.10
2018-10-04T00:59:53.874Z,7.00
2018-10-04T01:02:22.998Z,7.00
2018-10-04T01:04:52.063Z,7.00
2018-10-04T01:07:21.052Z,6.90
2018-10-04T01:09:50.149Z,7.00
2018-10-04T01:12:19.178Z,6.90
2018-10-04T01:14:48.248Z,6.80
2018-10-04T01:17:17.274Z,6.70
2018-10-04T01:19:46.319Z,6.70
2018-10-04T01:22:15.362Z,6.70
2018-10-04T01:24:44.350Z,6.70
2018-10-04T01:27:13.388Z,6.70
2018-10-04T01:29:42.412Z,6.70
2018-10-04T01:32:11.477Z,6.70
2018-10-04T01:34:40.529Z,6.70
2018-10-04T01:37:09.536Z,6.60
2018-10-04T01:39:38.529Z,6.60
2018-10-04T01:42:07.866Z,6.50
2018-10-04T01:44:36.874Z,6.60
2018-10-04T01:47:05.970Z,6.60
2018-10-04T01:49:35.113Z,6.60
2018-10-04T01:52:04.330Z,6.50
2018-10-04T01:54:33.387Z,6.50
2018-10-04T01:57:02.371Z,6.60
2018-10-04T01:59:31.416Z,6.50
2018-10-04T02:02:00.534Z,6.50
2018-10-04T02:04:29.574Z,6.50
2018-10-04T02:06:58.665Z,6.40
2018-10-04T02:09:27.721Z,6.40
2018-10-04T02:11:56.817Z,6.50
2018-10-04T02:14:25.827Z,6.40
2018-10-04T02:16:54.800Z,6.30
2018-10-04T02:19:23.832Z,6.30
2018-10-04T02:21:52.909Z,6.30
2018-10-04T02:24:21.883Z,6.30
2018-10-04T02:26:50.876Z,6.30
2018-10-04T02:29:19.854Z,6.20
2018-10-04T02:31:48.878Z,6.30
2018-10-04T02:34:17.899Z,6.20
2018-10-04T02:36:47.043Z,6.10
2018-10-04T02:39:16.034Z,6.20
2018-10-04T02:41:44.997Z,6.10
2018-10-04T02:44:14.005Z,6.10
2018-10-04T02:46:43.204Z,6.10
2018-10-04T02:49:12.246Z,6.00
2018-10-04T02:51:41.285Z,6.10
2018-10-04T02:54:14.473Z,6.10
2018-10-04T02:56:48.834Z,6.10
2018-10-04T02:59:17.958Z,6.00
2018-10-04T03:01:47.038Z,5.90
2018-10-04T03:04:16.120Z,5.90
2018-10-04T03:06:45.196Z,6.00
2018-10-04T03:09:14.536Z,6.00
2018-10-04T03:11:43.621Z,5.80
2018-10-04T03:14:12.795Z,5.80
2018-10-04T03:16:41.985Z,5.80
2018-10-04T03:19:11.691Z,5.80
2018-10-04T03:21:40.732Z,5.80
2018-10-04T03:24:09.827Z,5.70
2018-10-04T03:26:38.851Z,5.80
2018-10-04T03:29:07.867Z,5.80
2018-10-04T03:31:36.909Z,5.80
2018-10-04T03:34:06.084Z,5.70
2018-10-04T03:36:35.109Z,5.60
2018-10-04T03:39:05.102Z,5.50
2018-10-04T03:41:34.114Z,5.50
2018-10-04T03:44:03.300Z,5.60
2018-10-04T03:46:32.210Z,5.50
2018-10-04T03:49:01.420Z,5.50
2018-10-04T03:51:30.463Z,5.60
2018-10-04T03:53:59.557Z,5.50
2018-10-04T03:56:28.575Z,5.50
2018-10-04T03:58:57.637Z,5.50
2018-10-04T04:01:26.749Z,5.50
2018-10-04T04:03:56.003Z,5.40
2018-10-04T04:06:25.111Z,5.30
2018-10-04T04:08:54.147Z,5.30
2018-10-04T04:11:23.336Z,5.30
2018-10-04T04:13:52.333Z,5.30
2018-10-04T04:16:21.380Z,5.30
2018-10-04T04:18:50.411Z,5.40
2018-10-04T04:21:19.596Z,5.30
2018-10-04T04:23:50.886Z,5.20
2018-10-04T04:26:20.267Z,5.10
2018-10-04T04:28:50.465Z,5.10
2018-10-04T04:31:20.387Z,5.10
2018-10-04T04:33:49.633Z,5.00
2018-10-04T04:36:19.093Z,5.10
2018-10-04T04:38:48.328Z,5.20
2018-10-04T04:41:17.714Z,5.20
2018-10-04T04:43:46.864Z,5.20
2018-10-04T04:46:15.896Z,5.10
2018-10-04T04:48:44.997Z,5.10
2018-10-04T04:51:14.082Z,5.20
2018-10-04T04:53:43.989Z,5.20
2018-10-04T04:56:13.449Z,5.10
2018-10-04T04:58:42.542Z,5.10
2018-10-04T05:01:11.567Z,5.10
2018-10-04T05:03:40.553Z,5.10
2018-10-04T05:06:09.626Z,5.10
2018-10-04T05:08:38.747Z,5.10
2018-10-04T05:11:07.882Z,5.10
2018-10-04T05:13:36.898Z,5.10
2018-10-04T05:16:06.195Z,5.10
2018-10-04T05:18:35.115Z,5.00
2018-10-04T05:21:04.210Z,5.20
2018-10-04T05:23:33.191Z,5.00
2018-10-04T05:26:02.197Z,5.10
2018-10-04T05:28:31.203Z,5.10
2018-10-04T05:31:00.296Z,5.10
2018-10-04T05:33:29.513Z,5.00
2018-10-04T05:35:58.486Z,5.00
2018-10-04T05:38:27.602Z,5.00
2018-10-04T05:40:56.802Z,5.00
2018-10-04T05:43:25.806Z,5.00
2018-10-04T05:45:54.902Z,5.10
2018-10-04T05:48:23.929Z,5.20
2018-10-04T05:50:52.949Z,5.10
2018-10-04T05:53:22.101Z,5.10
2018-10-04T05:55:51.110Z,5.10
2018-10-04T05:58:20.222Z,5.10
2018-10-04T06:00:49.644Z,5.10
2018-10-04T06:03:18.998Z,5.10
2018-10-04T06:05:48.013Z,5.10
2018-10-04T06:08:17.002Z,5.10
2018-10-04T06:10:46.077Z,5.10
2018-10-04T06:13:15.305Z,5.10
2018-10-04T06:15:44.311Z,5.20
2018-10-04T06:18:13.291Z,5.20
2018-10-04T06:20:42.380Z,5.30
2018-10-04T06:23:11.414Z,5.40
2018-10-04T06:25:40.447Z,5.40
2018-10-04T06:28:09.900Z,5.50
2018-10-04T06:30:38.919Z,5.50
2018-10-04T06:33:08.055Z,5.50
2018-10-04T06:35:37.110Z,5.60
2018-10-04T06:38:06.182Z,5.70
2018-10-04T06:40:35.264Z,5.50
2018-10-04T06:43:04.309Z,5.60
2018-10-04T06:45:33.322Z,5.70
2018-10-04T06:48:02.349Z,5.70
2018-10-04T06:50:31.371Z,5.60
2018-10-04T06:53:00.482Z,5.80
2018-10-04T06:55:29.582Z,5.80
2018-10-04T06:57:58.741Z,5.90
2018-10-04T07:00:27.788Z,6.10
2018-10-04T07:02:56.828Z,6.10
2018-10-04T07:05:25.809Z,6.30
2018-10-04T07:07:54.951Z,6.50
2018-10-04T07:10:24.092Z,6.60
2018-10-04T07:12:53.111Z,6.70
2018-10-04T07:15:22.265Z,6.80
2018-10-04T07:17:51.251Z,7.20
2018-10-04T07:20:20.349Z,7.60
2018-10-04T07:22:49.383Z,8.10
2018-10-04T07:25:18.455Z,8.30
2018-10-04T07:27:47.481Z,8.40
2018-10-04T07:30:16.570Z,8.70
2018-10-04T07:32:45.606Z,8.50
2018-10-04T07:35:14.607Z,8.50
2018-10-04T07:37:43.578Z,8.50
2018-10-04T07:40:12.780Z,8.60
2018-10-04T07:42:41.858Z,8.70
2018-10-04T07:45:10.859Z,8.80
2018-10-04T07:47:39.962Z,8.80
2018-10-04T07:50:09.020Z,8.90
2018-10-04T07:52:38.018Z,9.10
2018-10-04T07:55:07.071Z,9.20
2018-10-04T07:57:36.211Z,9.10
2018-10-04T08:00:05.730Z,9.40
2018-10-04T08:02:34.753Z,9.40
2018-10-04T08:05:03.831Z,9.60
2018-10-04T08:07:32.846Z,9.80
2018-10-04T08:10:01.955Z,9.80
2018-10-04T08:12:31.058Z,10.20
2018-10-04T08:15:00.115Z,10.60
2018-10-04T08:17:29.197Z,10.50
2018-10-04T08:19:58.392Z,10.70
2018-10-04T08:22:27.377Z,10.80
2018-10-04T08:24:56.447Z,10.90
2018-10-04T08:27:25.728Z,10.90
2018-10-04T08:29:54.702Z,10.90
2018-10-04T08:32:23.742Z,11.00
2018-10-04T08:34:52.867Z,11.10
2018-10-04T08:37:21.952Z,11.00
2018-10-04T08:39:50.930Z,11.10
2018-10-04T08:42:20.179Z,11.20
2018-10-04T08:44:49.082Z,11.30
2018-10-04T08:47:18.137Z,11.30
2018-10-04T08:49:47.114Z,11.30
2018-10-04T08:52:21.426Z,11.40
2018-10-04T08:54:50.439Z,11.40
2018-10-04T08:57:19.642Z,11.30
2018-10-04T08:59:48.630Z,11.40
2018-10-04T09:02:17.718Z,11.40
2018-10-04T09:04:46.834Z,11.50
2018-10-04T09:07:15.984Z,11.50
2018-10-04T09:09:45.122Z,11.60
2018-10-04T09:12:14.188Z,11.80
2018-10-04T09:14:43.299Z,11.90
2018-10-04T09:17:12.379Z,11.90
2018-10-04T09:19:41.441Z,12.10
2018-10-04T09:22:10.556Z,12.30
2018-10-04T09:24:40.685Z,12.20
2018-10-04T09:27:09.752Z,12.10
2018-10-04T09:29:42.967Z,12.20
2018-10-04T09:32:11.979Z,12.20
2018-10-04T09:34:40.998Z,12.20
2018-10-04T09:37:10.464Z,12.40
2018-10-04T09:39:39.457Z,12.50
2018-10-04T09:42:08.490Z,12.70
2018-10-04T09:44:37.504Z,12.70
2018-10-04T09:47:12.016Z,12.80
2018-10-04T09:49:41.013Z,12.90
2018-10-04T09:52:10.099Z,12.90
2018-10-04T09:54:44.539Z,12.90
2018-10-04T09:57:18.902Z,13.00
2018-10-04T09:59:48.010Z,13.20
2018-10-04T10:02:19.091Z,13.40
2018-10-04T10:04:48.305Z,13.50
2018-10-04T10:07:17.448Z,13.60
2018-10-04T10:09:53.044Z,13.70
2018-10-04T10:12:22.142Z,13.70
2018-10-04T10:14:51.240Z,13.60
2018-10-04T10:17:20.301Z,13.60
2018-10-04T10:19:49.308Z,13.40
2018-10-04T10:22:18.385Z,13.60
2018-10-04T10:24:47.394Z,13.70
2018-10-04T10:27:16.455Z,13.80
2018-10-04T10:29:45.461Z,14.00
2018-10-04T10:32:14.529Z,13.90
2018-10-04T10:34:43.624Z,14.10
2018-10-04T10:37:12.575Z,14.10
2018-10-04T10:39:41.680Z,14.10
2018-10-04T10:42:10.793Z,14.20
2018-10-04T10:44:39.922Z,14.40
2018-10-04T10:47:09.114Z,14.50
2018-10-04T10:49:38.235Z,14.80
2018-10-04T10:52:07.245Z,14.90
2018-10-04T10:54:36.426Z,14.90
2018-10-04T10:57:05.497Z,14.90
2018-10-04T10:59:34.509Z,14.80
2018-10-04T11:02:03.694Z,14.80
2018-10-04T11:04:32.862Z,14.90
2018-10-04T11:07:01.978Z,14.90
2018-10-04T11:09:31.006Z,15.10
2018-10-04T11:12:00.093Z,15.50
2018-10-04T11:14:29.106Z,15.90
2018-10-04T11:16:58.178Z,16.20
2018-10-04T11:19:27.268Z,16.40
2018-10-04T11:21:56.333Z,16.30
2018-10-04T11:24:25.535Z,16.50
2018-10-04T11:26:54.657Z,16.50
2018-10-04T11:29:23.814Z,16.40
2018-10-04T11:31:52.822Z,16.30
2018-10-04T11:34:21.854Z,16.20
2018-10-04T11:36:51.439Z,16.30
2018-10-04T11:39:20.932Z,16.30
2018-10-04T11:41:49.979Z,16.10
2018-10-04T11:44:21.254Z,15.90
2018-10-04T11:46:53.707Z,16.10
2018-10-04T11:49:22.858Z,16.30
2018-10-04T11:51:52.055Z,16.90
2018-10-04T11:54:21.128Z,17.50
2018-10-04T11:56:50.428Z,18.50
2018-10-04T11:59:19.455Z,19.40
2018-10-04T12:01:48.710Z,20.00
2018-10-04T12:04:17.969Z,19.20
2018-10-04T12:06:47.037Z,19.40
2018-10-04T12:09:16.088Z,19.30
2018-10-04T12:11:45.087Z,19.00
2018-10-04T12:14:14.197Z,19.20
2018-10-04T12:19:08.434Z,20.20
2018-10-04T12:21:37.451Z,20.90
2018-10-04T12:24:06.551Z,21.40
2018-10-04T12:26:35.540Z,22.10
2018-10-04T12:29:04.667Z,22.50
2018-10-04T12:31:33.887Z,22.00
2018-10-04T12:34:02.998Z,22.00
2018-10-04T12:36:32.637Z,22.00
2018-10-04T12:39:01.675Z,22.70
2018-10-04T12:41:30.668Z,22.50
2018-10-04T12:43:59.805Z,21.60
2018-10-04T12:46:29.088Z,20.60
2018-10-04T12:48:58.135Z,19.70
2018-10-04T12:51:27.333Z,19.30
2018-10-04T12:53:56.490Z,19.00
2018-10-04T12:56:25.564Z,18.80
2018-10-04T12:58:54.647Z,18.60
2018-10-04T13:01:23.661Z,18.20
2018-10-04T13:03:52.705Z,18.00
2018-10-04T13:06:21.731Z,17.90
2018-10-04T13:08:50.722Z,17.60
2018-10-04T13:11:19.891Z,17.40
2018-10-04T13:13:49.067Z,17.30
2018-10-04T13:16:18.201Z,17.10
2018-10-04T13:18:47.276Z,17.10
2018-10-04T13:21:17.266Z,17.10
2018-10-04T13:23:46.290Z,17.00
2018-10-04T13:26:15.426Z,17.10
2018-10-04T13:28:44.780Z,17.10
2018-10-04T13:31:13.851Z,17.00
2018-10-04T13:33:42.819Z,16.90
2018-10-04T13:36:11.826Z,16.80
2018-10-04T13:38:40.962Z,16.80
2018-10-04T13:41:10.102Z,17.00
2018-10-04T13:43:39.186Z,17.00
2018-10-04T13:46:08.314Z,16.80
2018-10-04T13:48:37.248Z,16.60
2018-10-04T13:51:06.510Z,16.70
2018-10-04T13:53:35.873Z,16.70
2018-10-04T13:56:04.956Z,16.60
2018-10-04T13:58:34.197Z,16.60
2018-10-04T14:01:03.686Z,16.60
2018-10-04T14:03:32.733Z,16.70
2018-10-04T14:06:02.023Z,16.70
2018-10-04T14:08:31.022Z,16.70
2018-10-04T14:11:00.154Z,16.70
2018-10-04T14:13:29.606Z,16.70
2018-10-04T14:15:58.598Z,16.70
2018-10-04T14:18:27.712Z,16.60
2018-10-04T14:20:57.229Z,16.60
2018-10-04T14:23:27.054Z,16.50
2018-10-04T14:25:56.206Z,16.40
2018-10-04T14:28:25.323Z,16.50
2018-10-04T14:30:54.431Z,16.50
2018-10-04T14:33:23.435Z,16.40
2018-10-04T14:35:52.447Z,16.40
2018-10-04T14:38:21.519Z,16.30
2018-10-04T14:40:50.658Z,16.20
2018-10-04T14:43:19.707Z,16.20
2018-10-04T14:45:48.769Z,16.20
2018-10-04T14:48:17.820Z,16.20
2018-10-04T14:50:46.923Z,16.10
2018-10-04T14:53:15.984Z,16.20
2018-10-04T14:55:44.966Z,16.20
2018-10-04T14:58:13.990Z,16.30
2018-10-04T15:00:43.103Z,16.40
2018-10-04T15:03:12.293Z,16.30
2018-10-04T15:05:41.268Z,16.10
2018-10-04T15:08:10.271Z,16.00
2018-10-04T15:10:39.329Z,16.10
2018-10-04T15:13:08.421Z,16.10
2018-10-04T15:15:37.522Z,16.00
2018-10-04T15:18:06.587Z,16.00
2018-10-04T15:20:35.565Z,16.00
2018-10-04T15:23:04.609Z,16.00
2018-10-04T15:25:33.692Z,16.10
2018-10-04T15:28:02.728Z,16.10
2018-10-04T15:30:31.843Z,16.10
2018-10-04T15:33:00.946Z,16.10
2018-10-04T15:35:29.990Z,16.10
2018-10-04T15:37:59.069Z,16.00
2018-10-04T15:40:28.100Z,15.90
2018-10-04T15:42:57.376Z,15.90
2018-10-04T15:45:26.461Z,16.10
2018-10-04T15:47:55.508Z,16.10
2018-10-04T15:50:24.513Z,15.90
2018-10-04T15:52:53.627Z,15.80
2018-10-04T15:55:23.143Z,15.80
2018-10-04T15:57:52.867Z,15.80
2018-10-04T16:00:21.954Z,15.70
2018-10-04T16:02:50.948Z,15.60
2018-10-04T16:05:20.026Z,15.50
2018-10-04T16:07:49.077Z,15.50
2018-10-04T16:10:18.195Z,15.40
2018-10-04T16:12:47.878Z,15.40
2018-10-04T16:15:21.901Z,15.50
2018-10-04T16:17:50.978Z,15.50
2018-10-04T16:20:20.049Z,15.50
2018-10-04T16:22:49.060Z,15.40
2018-10-04T16:25:18.261Z,15.40
2018-10-04T16:27:48.679Z,15.40
2018-10-04T16:30:18.482Z,15.40
2018-10-04T16:32:47.503Z,15.30
2018-10-04T16:35:16.507Z,15.30
2018-10-04T16:37:45.616Z,15.20
2018-10-04T16:40:14.586Z,15.20
2018-10-04T16:42:43.603Z,15.10
2018-10-04T16:45:12.566Z,15.00
2018-10-04T16:47:41.852Z,14.90
2018-10-04T16:50:10.990Z,14.90
2018-10-04T16:52:40.043Z,14.80
2018-10-04T16:55:09.195Z,14.70
2018-10-04T16:57:38.115Z,14.70
2018-10-04T17:00:07.151Z,14.60
2018-10-04T17:02:36.165Z,14.60
2018-10-04T17:05:05.230Z,14.70
2018-10-04T17:07:34.715Z,14.80
2018-10-04T17:10:03.734Z,14.70
2018-10-04T17:12:33.082Z,14.50
2018-10-04T17:15:02.172Z,14.40
2018-10-04T17:17:31.117Z,14.20
2018-10-04T17:20:00.246Z,14.10
2018-10-04T17:22:29.360Z,14.10
2018-10-04T17:24:58.252Z,14.00
2018-10-04T17:27:28.763Z,14.00
2018-10-04T17:29:57.779Z,13.90
2018-10-04T17:32:27.240Z,13.80
2018-10-04T17:34:56.258Z,13.70
2018-10-04T17:37:25.537Z,13.70
2018-10-04T17:39:54.569Z,13.60
2018-10-04T17:42:23.631Z,13.50
2018-10-04T17:44:52.645Z,13.70
2018-10-04T17:47:21.713Z,13.50
2018-10-04T17:49:50.964Z,13.40
2018-10-04T17:52:20.345Z,13.30
2018-10-04T17:54:49.439Z,13.20
2018-10-04T17:57:19.061Z,13.10
2018-10-04T17:59:48.071Z,13.10
2018-10-04T18:02:17.108Z,13.00
2018-10-04T18:04:46.404Z,12.90
2018-10-04T18:07:15.471Z,12.90
2018-10-04T18:09:44.516Z,12.90
2018-10-04T18:12:13.534Z,12.90
2018-10-04T18:14:44.150Z,12.80
2018-10-04T18:17:13.164Z,12.80
2018-10-04T18:19:42.196Z,12.70
2018-10-04T18:22:11.290Z,12.70
2018-10-04T18:24:40.312Z,12.60
2018-10-04T18:27:09.347Z,12.70
2018-10-04T18:29:38.435Z,12.70
2018-10-04T18:32:07.590Z,12.60
2018-10-04T18:34:37.146Z,12.60
2018-10-04T18:37:06.170Z,12.50
2018-10-04T18:39:35.146Z,12.40
2018-10-04T18:42:04.147Z,12.30
2018-10-04T18:44:33.342Z,12.20
2018-10-04T18:47:02.326Z,12.20
2018-10-04T18:49:31.389Z,12.10
2018-10-04T18:52:00.441Z,12.10
2018-10-04T18:54:29.469Z,12.10
2018-10-04T18:56:58.502Z,12.20
2018-10-04T18:59:27.525Z,12.20
2018-10-04T19:01:56.632Z,12.10
2018-10-04T19:04:26.845Z,12.10
2018-10-04T19:06:55.855Z,11.90
2018-10-04T19:09:24.900Z,11.80
2018-10-04T19:11:53.917Z,11.80
2018-10-04T19:14:23.094Z,11.80
2018-10-04T19:16:52.151Z,11.80
2018-10-04T19:19:21.159Z,11.70
2018-10-04T19:21:50.194Z,11.70
2018-10-04T19:24:19.387Z,11.60
2018-10-04T19:26:48.377Z,11.50
2018-10-04T19:29:17.530Z,11.60
2018-10-04T19:31:46.618Z,11.60
2018-10-04T19:34:15.735Z,11.50
2018-10-04T19:36:44.786Z,11.50
2018-10-04T19:39:13.778Z,11.40
2018-10-04T19:41:42.777Z,11.40
2018-10-04T19:44:11.786Z,11.30
2018-10-04T19:46:41.140Z,11.20
2018-10-04T19:49:10.469Z,11.20
2018-10-04T19:51:39.558Z,11.10
2018-10-04T19:54:08.542Z,10.90
2018-10-04T19:56:37.646Z,10.80
2018-10-04T19:59:06.682Z,10.80
2018-10-04T20:01:35.773Z,10.80
2018-10-04T20:04:05.081Z,10.70
2018-10-04T20:06:34.148Z,10.70
2018-10-04T20:09:03.631Z,10.60
2018-10-04T20:11:32.740Z,10.60
2018-10-04T20:14:01.850Z,10.60
2018-10-04T20:16:30.982Z,10.40
2018-10-04T20:19:00.255Z,10.40
2018-10-04T20:21:29.316Z,10.40
2018-10-04T20:23:58.353Z,10.40
2018-10-04T20:26:27.535Z,10.30
2018-10-04T20:28:56.606Z,10.30
2018-10-04T20:31:25.630Z,10.20
2018-10-04T20:33:54.647Z,10.10
2018-10-04T20:36:23.707Z,10.10
2018-10-04T20:38:52.743Z,10.10
2018-10-04T20:41:21.805Z,10.10
2018-10-04T20:43:50.834Z,10.00
2018-10-04T20:46:19.824Z,10.10
2018-10-04T20:48:48.886Z,10.10
2018-10-04T20:51:17.953Z,10.00
2018-10-04T20:53:46.990Z,9.90
2018-10-04T20:56:16.019Z,9.80
2018-10-04T20:58:45.129Z,9.80
2018-10-04T21:01:14.170Z,9.90
2018-10-04T21:03:43.164Z,9.80
2018-10-04T21:06:12.189Z,9.80
2018-10-04T21:08:41.260Z,9.80
2018-10-04T21:11:10.253Z,9.80
2018-10-04T21:13:39.282Z,9.70
2018-10-04T21:16:08.322Z,9.60
2018-10-04T21:18:37.332Z,9.60
2018-10-04T21:21:06.447Z,9.60
2018-10-04T21:23:35.446Z,9.60
2018-10-04T21:26:04.520Z,9.40
2018-10-04T21:28:33.589Z,9.40
2018-10-04T21:31:02.612Z,9.40
2018-10-04T21:33:31.751Z,9.30
2018-10-04T21:36:00.837Z,9.30
2018-10-04T21:38:30.117Z,9.20
2018-10-04T21:40:59.566Z,9.30
2018-10-04T21:43:28.774Z,9.40
2018-10-04T21:45:58.491Z,9.40
2018-10-04T21:48:27.672Z,9.30
2018-10-04T21:50:56.706Z,9.20
2018-10-04T21:53:25.813Z,9.20
2018-10-04T21:55:54.877Z,9.10
2018-10-04T21:58:23.911Z,9.00
2018-10-04T22:00:56.937Z,8.90
2018-10-04T22:03:26.617Z,8.90
2018-10-04T22:05:55.609Z,9.00
2018-10-04T22:08:24.587Z,9.00
2018-10-04T22:10:53.558Z,9.00
2018-10-04T22:13:22.624Z,9.00
2018-10-04T22:15:51.619Z,9.00
2018-10-04T22:18:20.623Z,8.90
2018-10-04T22:20:49.658Z,8.90
2018-10-04T22:23:18.754Z,8.80
2018-10-04T22:25:47.803Z,8.70
2018-10-04T22:28:16.818Z,8.70
2018-10-04T22:30:45.878Z,8.60
2018-10-04T22:33:14.856Z,8.60
2018-10-04T22:35:43.850Z,8.50
2018-10-04T22:38:12.886Z,8.50
2018-10-04T22:40:41.985Z,8.40
2018-10-04T22:43:10.969Z,8.40
2018-10-04T22:45:40.032Z,8.30
2018-10-04T22:48:09.139Z,8.40
2018-10-04T22:50:38.209Z,8.30
2018-10-04T22:53:07.571Z,8.30
2018-10-04T22:55:36.627Z,8.30
2018-10-04T22:58:05.768Z,8.20
2018-10-04T23:00:34.793Z,8.20
2018-10-04T23:03:03.859Z,8.10
2018-10-04T23:05:32.885Z,8.00
2018-10-04T23:08:01.865Z,8.00
2018-10-04T23:10:31.125Z,8.00
2018-10-04T23:13:00.137Z,8.00
2018-10-04T23:15:29.138Z,8.00
2018-10-04T23:17:58.154Z,8.00
2018-10-04T23:20:27.118Z,7.90
2018-10-04T23:22:56.088Z,7.90
2018-10-04T23:25:25.365Z,8.00
2018-10-04T23:27:54.385Z,7.90
2018-10-04T23:30:23.411Z,7.90
2018-10-04T23:32:52.490Z,8.00
2018-10-04T23:35:21.549Z,8.10
2018-10-04T23:37:50.530Z,8.10
2018-10-04T23:40:19.504Z,7.90
2018-10-04T23:42:48.495Z,7.80
2018-10-04T23:45:18.080Z,7.80
2018-10-04T23:47:47.109Z,7.80
2018-10-04T23:50:16.112Z,7.80
2018-10-04T23:52:45.118Z,7.60
2018-10-04T23:55:14.098Z,7.60
2018-10-04T23:57:43.065Z,7.60
